createdAt,value
2022-09-28T00:00:17.773Z,4.00
2022-09-28T00:02:44.575Z,3.60
2022-09-28T00:05:11.299Z,3.80
2022-09-28T00:07:38.109Z,3.72
2022-09-28T00:10:05.205Z,3.50
2022-09-28T00:12:31.859Z,3.40
2022-09-28T00:14:58.503Z,4.22
2022-09-28T00:17:25.220Z,4.00
2022-09-28T00:19:51.975Z,3.90
2022-09-28T00:22:18.656Z,4.28
2022-09-28T00:24:45.330Z,4.20
2022-09-28T00:27:11.988Z,4.60
2022-09-28T00:29:38.657Z,4.10
2022-09-28T00:32:09.549Z,4.53
2022-09-28T00:34:39.369Z,4.50
2022-09-28T00:37:06.946Z,4.45
2022-09-28T00:39:33.566Z,4.40
2022-09-28T00:42:00.221Z,4.60
2022-09-28T00:44:26.822Z,4.70
2022-09-28T00:46:55.975Z,4.60
2022-09-28T00:49:31.651Z,4.28
2022-09-28T00:51:59.168Z,4.57
2022-09-28T00:54:25.936Z,4.60
2022-09-28T00:56:52.628Z,4.40
2022-09-28T00:59:19.351Z,4.22
2022-09-28T01:01:46.059Z,4.13
2022-09-28T01:04:12.791Z,4.18
2022-09-28T01:06:40.075Z,4.25
2022-09-28T01:09:10.386Z,4.40
2022-09-28T01:11:38.920Z,3.88
2022-09-28T01:14:10.351Z,3.78
2022-09-28T01:16:51.346Z,4.05
2022-09-28T01:19:43.142Z,4.50
2022-09-28T01:22:21.608Z,5.07
2022-09-28T01:25:25.860Z,4.20
2022-09-28T01:27:56.652Z,4.78
2022-09-28T01:30:23.555Z,4.40
2022-09-28T01:32:53.011Z,4.57
2022-09-28T01:35:22.807Z,4.50
2022-09-28T01:37:52.213Z,3.90
2022-09-28T01:40:24.162Z,4.65
2022-09-28T01:42:56.870Z,3.80
2022-09-28T01:45:40.467Z,4.13
2022-09-28T01:48:08.557Z,3.90
2022-09-28T01:50:41.753Z,3.92
2022-09-28T01:53:12.810Z,3.75
2022-09-28T01:55:45.204Z,4.07
2022-09-28T01:58:27.538Z,4.22
2022-09-28T02:01:03.389Z,3.70
2022-09-28T02:03:36.687Z,3.78
2022-09-28T02:06:08.670Z,4.20
2022-09-28T02:08:45.046Z,4.18
2022-09-28T02:11:15.487Z,4.05
2022-09-28T02:13:50.684Z,4.28
2022-09-28T02:16:39.815Z,4.63
2022-09-28T02:19:12.535Z,4.70
2022-09-28T02:22:02.917Z,4.97
2022-09-28T02:24:37.587Z,5.03
2022-09-28T02:27:26.180Z,5.63
2022-09-28T02:29:53.128Z,5.72
2022-09-28T02:32:20.367Z,6.40
2022-09-28T02:34:47.245Z,6.15
2022-09-28T02:37:14.095Z,6.13
2022-09-28T02:39:40.697Z,6.88
2022-09-28T02:42:19.575Z,6.80
2022-09-28T02:44:55.199Z,6.90
2022-09-28T02:47:42.065Z,7.45
2022-09-28T02:50:30.046Z,7.13
2022-09-28T02:53:37.242Z,6.93
2022-09-28T02:59:06.901Z,7.85
2022-09-28T03:01:36.467Z,7.82
2022-09-28T03:04:18.826Z,8.15
2022-09-28T03:07:22.766Z,7.95
2022-09-28T03:09:54.176Z,8.43
2022-09-28T03:12:22.961Z,8.63
2022-09-28T03:15:10.075Z,8.30
2022-09-28T03:17:37.031Z,8.20
2022-09-28T03:20:04.919Z,7.88
2022-09-28T03:22:31.650Z,8.10
2022-09-28T03:24:58.251Z,8.63
2022-09-28T03:27:24.883Z,9.25
2022-09-28T03:29:51.523Z,8.98
2022-09-28T03:32:18.139Z,9.10
2022-09-28T03:34:44.781Z,9.55
2022-09-28T03:37:11.527Z,8.95
2022-09-28T03:39:38.198Z,9.55
2022-09-28T03:42:04.964Z,8.82
2022-09-28T03:44:31.591Z,9.45
2022-09-28T03:46:58.259Z,9.15
2022-09-28T03:49:24.866Z,9.27
2022-09-28T03:51:51.562Z,9.18
2022-09-28T03:54:18.287Z,8.70
2022-09-28T03:56:44.996Z,9.98
2022-09-28T03:59:11.724Z,9.43
2022-09-28T04:01:38.556Z,8.88
2022-09-28T04:04:05.323Z,9.27
2022-09-28T04:06:32.034Z,9.52
2022-09-28T04:08:58.745Z,9.43
2022-09-28T04:11:25.362Z,9.20
2022-09-28T04:13:52.019Z,9.35
2022-09-28T04:16:18.789Z,9.88
2022-09-28T04:18:45.463Z,9.82
2022-09-28T04:21:13.291Z,9.95
2022-09-28T04:23:40.286Z,9.60
2022-09-28T04:26:13.663Z,15.85
2022-09-28T04:28:40.420Z,11.02
2022-09-28T04:31:12.118Z,10.52
2022-09-28T04:33:38.883Z,10.93
2022-09-28T04:36:05.756Z,11.38
2022-09-28T04:38:51.900Z,10.45
2022-09-28T04:41:19.538Z,11.23
2022-09-28T04:43:49.694Z,10.90
2022-09-28T04:46:16.863Z,10.20
2022-09-28T04:48:43.666Z,11.02
2022-09-28T04:51:10.524Z,11.10
2022-09-28T04:53:37.272Z,11.27
2022-09-28T04:56:06.416Z,10.93
2022-09-28T04:58:35.458Z,10.95
2022-09-28T05:01:05.047Z,9.77
2022-09-28T05:03:31.787Z,10.40
2022-09-28T05:05:58.764Z,10.80
2022-09-28T05:08:26.842Z,10.20
2022-09-28T05:11:01.737Z,10.25
2022-09-28T05:13:30.609Z,10.90
2022-09-28T05:16:03.023Z,10.18
2022-09-28T05:18:31.932Z,10.05
2022-09-28T05:20:58.752Z,10.43
2022-09-28T05:23:25.393Z,9.73
2022-09-28T05:25:52.038Z,10.70
2022-09-28T05:28:28.678Z,10.95
2022-09-28T05:30:59.905Z,10.45
2022-09-28T05:33:27.114Z,11.15
2022-09-28T05:35:57.882Z,11.07
2022-09-28T05:38:27.757Z,11.18
2022-09-28T05:40:54.454Z,11.70
2022-09-28T05:43:21.185Z,10.85
2022-09-28T05:45:50.419Z,10.32
2022-09-28T05:48:21.057Z,10.35
2022-09-28T05:50:54.228Z,10.38
2022-09-28T05:53:21.018Z,10.95
2022-09-28T05:55:48.223Z,12.23
2022-09-28T05:58:15.067Z,11.30
2022-09-28T06:00:41.979Z,10.77
2022-09-28T06:03:12.318Z,10.27
2022-09-28T06:05:39.677Z,10.13
2022-09-28T06:08:08.194Z,10.15
2022-09-28T06:10:35.026Z,9.80
2022-09-28T06:13:02.008Z,9.80
2022-09-28T06:15:31.122Z,9.75
2022-09-28T06:18:03.676Z,10.00
2022-09-28T06:20:33.936Z,10.43
2022-09-28T06:23:00.619Z,10.05
2022-09-28T06:25:27.545Z,10.02
2022-09-28T06:28:07.022Z,10.43
2022-09-28T06:30:35.483Z,10.60
2022-09-28T06:33:02.657Z,10.95
2022-09-28T06:35:30.740Z,11.18
2022-09-28T06:37:58.903Z,11.40
2022-09-28T06:40:26.374Z,11.70
2022-09-28T06:43:09.283Z,11.23
2022-09-28T06:45:36.871Z,11.95
2022-09-28T06:48:04.661Z,12.23
2022-09-28T06:50:34.084Z,12.82
2022-09-28T06:53:01.369Z,12.77
2022-09-28T06:55:28.970Z,12.82
2022-09-28T06:58:03.747Z,12.35
2022-09-28T07:00:36.272Z,12.95
2022-09-28T07:03:05.619Z,13.82
2022-09-28T07:05:34.972Z,13.70
2022-09-28T07:08:02.223Z,12.52
2022-09-28T07:10:30.852Z,13.13
2022-09-28T07:13:00.082Z,13.50
2022-09-28T07:15:26.705Z,13.52
2022-09-28T07:18:03.307Z,13.40
2022-09-28T07:20:31.954Z,13.52
2022-09-28T07:23:11.094Z,12.68
2022-09-28T07:25:42.897Z,13.27
2022-09-28T07:28:09.567Z,13.50
2022-09-28T07:30:36.289Z,14.05
2022-09-28T07:33:05.322Z,13.95
2022-09-28T07:35:32.621Z,13.75
2022-09-28T07:38:00.243Z,14.02
2022-09-28T07:40:27.970Z,14.70
2022-09-28T07:42:54.725Z,14.20
2022-09-28T07:45:21.466Z,14.82
2022-09-28T07:47:48.048Z,14.30
2022-09-28T07:50:14.871Z,14.60
2022-09-28T07:52:41.549Z,14.02
2022-09-28T07:55:08.551Z,14.02
2022-09-28T07:57:35.257Z,12.95
2022-09-28T08:00:02.575Z,13.38
2022-09-28T08:02:29.268Z,13.55
2022-09-28T08:04:55.899Z,13.15
2022-09-28T08:07:24.120Z,13.13
2022-09-28T08:09:51.272Z,12.48
2022-09-28T08:12:18.114Z,12.63
2022-09-28T08:14:44.729Z,12.80
2022-09-28T08:17:11.841Z,11.40
2022-09-28T08:19:40.854Z,11.93
2022-09-28T08:22:07.485Z,11.05
2022-09-28T08:24:34.090Z,11.82
2022-09-28T08:27:00.747Z,11.73
2022-09-28T08:29:27.347Z,12.45
2022-09-28T08:31:56.346Z,11.30
2022-09-28T08:34:26.175Z,11.23
2022-09-28T08:36:56.033Z,10.13
2022-09-28T08:39:22.958Z,10.05
2022-09-28T08:42:04.473Z,10.70
2022-09-28T08:44:41.199Z,10.65
2022-09-28T08:47:16.272Z,10.35
2022-09-28T08:49:48.718Z,10.35
2022-09-28T08:52:27.594Z,11.00
2022-09-28T08:55:19.520Z,10.23
2022-09-28T08:57:52.576Z,9.57
2022-09-28T09:00:35.286Z,9.43
2022-09-28T09:03:13.556Z,9.55
2022-09-28T09:06:06.522Z,9.57
2022-09-28T09:08:59.723Z,9.75
2022-09-28T09:11:50.109Z,9.10
2022-09-28T09:14:35.009Z,9.35
2022-09-28T09:17:23.596Z,9.32
2022-09-28T09:19:57.037Z,8.63
2022-09-28T09:22:41.570Z,8.48
2022-09-28T09:25:25.736Z,8.63
2022-09-28T09:28:17.396Z,7.90
2022-09-28T09:31:10.373Z,7.18
2022-09-28T09:34:12.280Z,6.72
2022-09-28T09:37:00.112Z,6.15
2022-09-28T09:39:39.383Z,6.10
2022-09-28T09:42:14.842Z,5.25
2022-09-28T09:44:53.801Z,6.32
2022-09-28T09:47:23.088Z,6.40
2022-09-28T09:50:00.436Z,5.75
2022-09-28T09:52:51.714Z,5.30
2022-09-28T09:55:31.657Z,3.97
2022-09-28T09:58:22.565Z,3.80
2022-09-28T10:00:52.148Z,2.90
2022-09-28T10:03:34.728Z,2.70
2022-09-28T10:06:12.065Z,2.40
2022-09-28T10:08:44.372Z,3.13
2022-09-28T10:11:17.028Z,1.85
2022-09-28T10:13:43.788Z,1.98
2022-09-28T10:16:10.557Z,2.20
2022-09-28T10:18:38.046Z,2.17
2022-09-28T10:21:05.011Z,2.22
2022-09-28T10:23:35.942Z,2.08
2022-09-28T10:26:07.429Z,2.00
2022-09-28T10:28:55.464Z,2.30
2022-09-28T10:31:47.341Z,2.10
2022-09-28T10:34:19.586Z,2.33
2022-09-28T10:36:51.125Z,1.80
2022-09-28T10:39:40.331Z,1.50
2022-09-28T10:42:13.041Z,3.85
2022-09-28T10:44:56.432Z,2.30
2022-09-28T10:47:25.871Z,1.42
2022-09-28T10:49:54.298Z,1.50
2022-09-28T10:52:42.126Z,1.85
2022-09-28T10:55:20.947Z,1.55
2022-09-28T10:57:48.218Z,1.75
2022-09-28T11:00:42.394Z,1.88
2022-09-28T11:03:22.550Z,1.90
2022-09-28T11:06:05.178Z,2.13
2022-09-28T11:08:40.337Z,1.70
2022-09-28T11:11:13.017Z,1.80
2022-09-28T11:13:43.115Z,1.90
2022-09-28T11:16:32.807Z,2.15
2022-09-28T11:19:24.949Z,2.40
2022-09-28T11:21:51.595Z,2.78
2022-09-28T11:24:23.227Z,2.58
2022-09-28T11:26:52.854Z,2.50
2022-09-28T11:29:34.541Z,2.78
2022-09-28T11:32:02.393Z,2.83
2022-09-28T11:34:58.487Z,2.97
2022-09-28T11:37:48.121Z,2.30
2022-09-28T11:40:26.833Z,2.97
2022-09-28T11:43:07.220Z,2.95
2022-09-28T11:45:43.988Z,2.70
2022-09-28T11:48:17.374Z,2.20
2022-09-28T11:50:49.825Z,2.33
2022-09-28T11:53:39.807Z,2.92
2022-09-28T11:56:14.117Z,2.33
2022-09-28T11:58:50.771Z,2.50
2022-09-28T12:01:20.192Z,2.17
2022-09-28T12:03:58.229Z,1.60
2022-09-28T12:06:33.021Z,2.00
2022-09-28T12:09:10.917Z,1.88
2022-09-28T12:11:43.329Z,1.58
2022-09-28T12:14:27.331Z,1.73
2022-09-28T12:17:06.853Z,1.90
2022-09-28T12:19:37.835Z,1.92
2022-09-28T12:22:13.668Z,1.27
2022-09-28T12:27:26.842Z,1.10
2022-09-28T12:29:58.519Z,1.10
2022-09-28T12:32:50.920Z,0.90
2022-09-28T12:35:54.723Z,1.40
2022-09-28T12:42:07.874Z,1.50
2022-09-28T12:44:59.264Z,1.02
2022-09-28T12:47:51.428Z,1.50
2022-09-28T12:50:56.873Z,1.58
2022-09-28T12:53:54.085Z,1.65
2022-09-28T12:56:42.079Z,1.20
2022-09-28T12:59:17.967Z,1.20
2022-09-28T13:01:54.016Z,1.20
2022-09-28T13:04:29.098Z,1.20
2022-09-28T13:07:14.244Z,1.67
2022-09-28T13:09:55.681Z,2.10
2022-09-28T13:12:33.983Z,1.98
2022-09-28T13:15:00.610Z,1.70
2022-09-28T13:17:43.074Z,1.15
2022-09-28T13:20:31.407Z,1.23
2022-09-28T13:23:04.109Z,0.90
2022-09-28T13:25:33.574Z,1.50
2022-09-28T13:28:03.397Z,1.77
2022-09-28T13:30:32.321Z,1.02
2022-09-28T13:33:02.751Z,0.98
2022-09-28T13:35:29.970Z,1.15
2022-09-28T13:38:16.576Z,2.58
2022-09-28T13:41:04.889Z,1.40
2022-09-28T13:43:45.211Z,1.60
2022-09-28T13:46:44.082Z,1.40
2022-09-28T13:49:28.871Z,1.50
2022-09-28T13:52:06.837Z,1.33
2022-09-28T13:55:10.698Z,1.33
2022-09-28T13:57:55.868Z,1.30
2022-09-28T14:00:43.239Z,1.10
2022-09-28T14:03:28.255Z,1.30
2022-09-28T14:06:08.127Z,1.60
2022-09-28T14:09:04.841Z,1.40
2022-09-28T14:14:09.621Z,1.00
2022-09-28T14:16:37.795Z,1.00
2022-09-28T14:19:25.325Z,0.73
2022-09-28T14:22:19.428Z,0.90
2022-09-28T14:25:00.511Z,1.25
2022-09-28T14:27:39.129Z,1.10
2022-09-28T14:30:11.938Z,1.20
2022-09-28T14:32:41.215Z,1.42
2022-09-28T14:35:23.773Z,1.35
2022-09-28T14:37:55.219Z,1.23
2022-09-28T14:40:29.936Z,1.20
2022-09-28T14:43:55.144Z,1.50
2022-09-28T14:46:21.780Z,1.33
2022-09-28T14:48:59.161Z,2.05
2022-09-28T14:51:25.765Z,2.35
2022-09-28T14:53:59.436Z,2.03
2022-09-28T14:56:32.477Z,2.25
2022-09-28T14:59:05.566Z,2.08
2022-09-28T15:01:35.160Z,1.90
2022-09-28T15:04:05.364Z,2.00
2022-09-28T15:06:48.517Z,1.88
2022-09-28T15:09:35.149Z,1.80
2022-09-28T15:12:04.043Z,2.20
2022-09-28T15:14:34.335Z,2.30
2022-09-28T15:17:09.241Z,1.83
2022-09-28T15:19:43.715Z,1.73
2022-09-28T15:22:18.631Z,1.95
2022-09-28T15:25:02.003Z,2.57
2022-09-28T15:27:37.406Z,1.73
2022-09-28T15:30:28.080Z,1.73
2022-09-28T15:32:56.487Z,2.17
2022-09-28T15:35:26.214Z,2.03
2022-09-28T15:37:54.790Z,2.42
2022-09-28T15:40:24.241Z,2.25
2022-09-28T15:42:51.046Z,2.30
2022-09-28T15:45:26.070Z,2.60
2022-09-28T15:47:55.778Z,2.58
2022-09-28T15:50:29.860Z,2.20
2022-09-28T15:52:59.068Z,3.10
2022-09-28T15:55:35.919Z,4.00
2022-09-28T15:58:21.115Z,2.90
2022-09-28T16:00:49.943Z,3.55
2022-09-28T16:03:30.216Z,2.55
2022-09-28T16:05:56.848Z,2.42
2022-09-28T16:08:37.160Z,4.32
2022-09-28T16:11:15.869Z,3.75
2022-09-28T16:13:57.546Z,3.10
2022-09-28T16:16:28.911Z,2.65
2022-09-28T16:18:57.712Z,4.03
2022-09-28T16:21:33.119Z,2.58
2022-09-28T16:23:59.879Z,3.00
2022-09-28T16:26:35.683Z,1.60
2022-09-28T16:31:33.940Z,2.25
2022-09-28T16:34:18.103Z,2.22
2022-09-28T16:36:47.066Z,2.80
2022-09-28T16:39:15.585Z,2.50
2022-09-28T16:41:55.063Z,2.85
2022-09-28T16:44:27.551Z,2.60
2022-09-28T16:46:58.211Z,3.20
2022-09-28T16:49:25.507Z,2.60
2022-09-28T16:51:52.433Z,3.08
2022-09-28T16:54:24.739Z,2.80
2022-09-28T16:56:51.731Z,2.83
2022-09-28T16:59:18.625Z,3.40
2022-09-28T17:01:45.772Z,4.28
2022-09-28T17:04:12.626Z,4.78
2022-09-28T17:06:39.262Z,4.10
2022-09-28T17:09:06.058Z,4.40
2022-09-28T17:11:33.706Z,4.60
2022-09-28T17:14:00.815Z,4.07
2022-09-28T17:17:02.353Z,4.90
2022-09-28T17:19:21.699Z,5.00
2022-09-28T17:21:48.904Z,4.43
2022-09-28T17:24:15.598Z,4.68
2022-09-28T17:26:43.397Z,4.90
2022-09-28T17:29:13.755Z,4.30
2022-09-28T17:31:44.397Z,4.43
2022-09-28T17:34:13.784Z,4.72
2022-09-28T17:36:42.164Z,4.82
2022-09-28T17:39:17.667Z,4.93
2022-09-28T17:41:45.194Z,5.40
2022-09-28T17:44:12.851Z,5.10
2022-09-28T17:46:43.561Z,5.20
2022-09-28T17:49:12.038Z,5.22
2022-09-28T17:51:38.847Z,5.53
2022-09-28T17:54:06.832Z,5.53
2022-09-28T17:56:34.570Z,5.47
2022-09-28T17:59:03.923Z,5.07
2022-09-28T18:01:32.062Z,5.40
2022-09-28T18:04:00.373Z,5.53
2022-09-28T18:06:26.957Z,5.38
2022-09-28T18:08:53.610Z,5.35
2022-09-28T18:11:20.398Z,5.15
2022-09-28T18:13:47.051Z,5.15
2022-09-28T18:16:14.701Z,5.30
2022-09-28T18:18:41.526Z,5.03
2022-09-28T18:21:08.774Z,4.30
2022-09-28T18:23:36.832Z,5.40
2022-09-28T18:26:04.374Z,4.93
2022-09-28T18:28:31.432Z,4.93
2022-09-28T18:30:58.084Z,4.47
2022-09-28T18:33:24.846Z,4.38
2022-09-28T18:35:54.034Z,4.80
2022-09-28T18:38:20.936Z,5.05
2022-09-28T18:40:48.065Z,5.30
2022-09-28T18:43:15.398Z,5.60
2022-09-28T18:45:42.276Z,6.00
2022-09-28T18:48:09.168Z,5.63
2022-09-28T18:50:35.819Z,6.18
2022-09-28T18:53:02.866Z,6.53
2022-09-28T18:55:29.566Z,6.47
2022-09-28T18:57:56.244Z,6.40
2022-09-28T19:00:22.935Z,6.95
2022-09-28T19:02:49.645Z,6.85
2022-09-28T19:05:16.363Z,7.35
2022-09-28T19:07:42.996Z,7.50
2022-09-28T19:10:09.748Z,8.00
2022-09-28T19:12:36.431Z,7.78
2022-09-28T19:15:03.134Z,8.23
2022-09-28T19:17:29.777Z,8.32
2022-09-28T19:19:56.423Z,8.68
2022-09-28T19:22:23.038Z,7.93
2022-09-28T19:24:49.699Z,10.05
2022-09-28T19:27:16.332Z,8.68
2022-09-28T19:29:42.971Z,8.20
2022-09-28T19:32:09.587Z,8.15
2022-09-28T19:34:36.224Z,7.38
2022-09-28T19:37:02.848Z,8.23
2022-09-28T19:39:30.035Z,8.07
2022-09-28T19:41:56.709Z,8.77
2022-09-28T19:44:25.520Z,8.77
2022-09-28T19:47:05.056Z,8.73
2022-09-28T19:49:31.744Z,8.70
2022-09-28T19:52:15.086Z,8.70
2022-09-28T19:54:47.892Z,8.38
2022-09-28T19:57:14.626Z,7.95
2022-09-28T19:59:41.328Z,8.18
2022-09-28T20:02:10.132Z,7.60
2022-09-28T20:04:36.971Z,7.00
2022-09-28T20:07:04.121Z,7.18
2022-09-28T20:09:32.082Z,7.75
2022-09-28T20:11:58.728Z,8.00
2022-09-28T20:14:26.415Z,7.68
2022-09-28T20:16:57.673Z,6.78
2022-09-28T20:19:24.383Z,6.18
2022-09-28T20:21:51.106Z,7.18
2022-09-28T20:24:17.957Z,7.00
2022-09-28T20:26:45.554Z,6.93
2022-09-28T20:29:12.661Z,7.05
2022-09-28T20:31:39.396Z,8.27
2022-09-28T20:34:06.863Z,8.02
2022-09-28T20:36:34.414Z,9.98
2022-09-28T20:39:02.524Z,11.20
2022-09-28T20:41:31.510Z,10.00
2022-09-28T20:44:01.490Z,9.57
2022-09-28T20:46:30.977Z,11.10
2022-09-28T20:48:57.644Z,12.73
2022-09-28T20:51:24.310Z,12.27
2022-09-28T20:53:56.061Z,12.00
2022-09-28T20:56:30.601Z,11.60
2022-09-28T20:58:57.542Z,11.60
2022-09-28T21:01:26.920Z,11.20
2022-09-28T21:03:56.385Z,12.27
2022-09-28T21:06:25.743Z,10.95
2022-09-28T21:08:52.619Z,11.40
2022-09-28T21:11:21.674Z,11.35
2022-09-28T21:13:51.674Z,10.75
2022-09-28T21:16:18.689Z,10.77
2022-09-28T21:18:45.685Z,10.35
2022-09-28T21:21:15.146Z,10.30
2022-09-28T21:23:41.867Z,10.20
2022-09-28T21:26:13.636Z,9.65
2022-09-28T21:28:40.647Z,9.55
2022-09-28T21:31:10.198Z,9.82
2022-09-28T21:33:37.605Z,9.35
2022-09-28T21:36:06.117Z,9.30
2022-09-28T21:38:33.179Z,8.65
2022-09-28T21:41:00.402Z,8.43
2022-09-28T21:43:29.423Z,8.55
2022-09-28T21:45:56.738Z,8.57
2022-09-28T21:48:25.600Z,8.23
2022-09-28T21:51:03.976Z,9.02
2022-09-28T21:53:32.832Z,8.40
2022-09-28T21:56:00.917Z,8.73
2022-09-28T21:58:30.553Z,7.72
2022-09-28T22:01:09.467Z,7.68
2022-09-28T22:03:36.649Z,7.72
2022-09-28T22:06:04.716Z,6.88
2022-09-28T22:08:32.118Z,7.80
2022-09-28T22:11:10.362Z,7.53
2022-09-28T22:13:44.360Z,7.60
2022-09-28T22:16:12.390Z,7.70
2022-09-28T22:18:39.399Z,7.43
2022-09-28T22:21:27.654Z,6.93
2022-09-28T22:23:57.460Z,6.95
2022-09-28T22:26:25.779Z,7.45
2022-09-28T22:28:54.718Z,7.00
2022-09-28T22:31:27.245Z,7.07
2022-09-28T22:33:54.637Z,6.82
2022-09-28T22:36:21.707Z,7.13
2022-09-28T22:38:49.318Z,7.57
2022-09-28T22:41:17.680Z,6.88
2022-09-28T22:43:44.538Z,6.90
2022-09-28T22:46:13.315Z,6.55
2022-09-28T22:48:40.383Z,7.22
2022-09-28T22:51:07.254Z,7.35
2022-09-28T22:53:34.839Z,7.28
2022-09-28T22:56:02.264Z,7.05
2022-09-28T22:58:28.919Z,7.13
2022-09-28T23:00:55.542Z,7.20
2022-09-28T23:03:22.192Z,6.97
2022-09-28T23:05:55.748Z,7.60
2022-09-28T23:08:23.498Z,7.53
2022-09-28T23:10:51.079Z,7.28
2022-09-28T23:13:17.844Z,7.13
2022-09-28T23:15:53.924Z,7.15
2022-09-28T23:18:20.642Z,7.43
2022-09-28T23:20:58.560Z,8.02
2022-09-28T23:23:25.457Z,7.38
2022-09-28T23:25:53.054Z,7.20
2022-09-28T23:28:21.591Z,7.72
2022-09-28T23:30:48.866Z,7.53
2022-09-28T23:33:17.251Z,7.82
2022-09-28T23:35:44.259Z,7.72
2022-09-28T23:38:16.141Z,9.13
2022-09-28T23:40:42.962Z,8.65
2022-09-28T23:43:09.651Z,8.75
2022-09-28T23:45:36.338Z,9.43
2022-09-28T23:48:03.245Z,9.27
2022-09-28T23:50:29.931Z,9.30
2022-09-28T23:52:56.605Z,9.98
2022-09-28T23:55:23.240Z,10.13
2022-09-28T23:57:49.860Z,10.18
